sensor_id;sensor_type;location;lat;lon;timestamp;P1;durP1;ratioP1;P2;durP2;ratioP2
56381;SDS011;74506;51.150;4.470;2024-01-10T00:00:48;7.55;;;4.25;;
56381;SDS011;74506;51.150;4.470;2024-01-10T00:03:14;8.90;;;4.72;;
56381;SDS011;74506;51.150;4.470;2024-01-10T00:05:40;8.85;;;4.38;;
56381;SDS011;74506;51.150;4.470;2024-01-10T00:08:05;9.05;;;4.43;;
56381;SDS011;74506;51.150;4.470;2024-01-10T00:10:31;7.60;;;4.47;;
56381;SDS011;74506;51.150;4.470;2024-01-10T00:12:57;8.32;;;4.10;;
56381;SDS011;74506;51.150;4.470;2024-01-10T00:15:23;8.23;;;4.25;;
56381;SDS011;74506;51.150;4.470;2024-01-10T00:17:48;8.32;;;4.38;;
56381;SDS011;74506;51.150;4.470;2024-01-10T00:20:14;9.90;;;4.95;;
56381;SDS011;74506;51.150;4.470;2024-01-10T00:22:39;8.73;;;4.82;;
56381;SDS011;74506;51.150;4.470;2024-01-10T00:25:05;7.53;;;4.00;;
56381;SDS011;74506;51.150;4.470;2024-01-10T00:27:31;8.75;;;4.65;;
56381;SDS011;74506;51.150;4.470;2024-01-10T00:29:56;8.98;;;4.50;;
56381;SDS011;74506;51.150;4.470;2024-01-10T00:32:22;9.85;;;4.60;;
56381;SDS011;74506;51.150;4.470;2024-01-10T00:34:48;9.50;;;4.47;;
56381;SDS011;74506;51.150;4.470;2024-01-10T00:37:14;9.02;;;4.38;;
56381;SDS011;74506;51.150;4.470;2024-01-10T00:39:39;7.85;;;4.32;;
56381;SDS011;74506;51.150;4.470;2024-01-10T00:42:05;8.82;;;4.32;;
56381;SDS011;74506;51.150;4.470;2024-01-10T00:44:30;7.63;;;4.18;;
56381;SDS011;74506;51.150;4.470;2024-01-10T00:46:56;8.45;;;4.20;;
56381;SDS011;74506;51.150;4.470;2024-01-10T00:49:21;10.05;;;4.10;;
56381;SDS011;74506;51.150;4.470;2024-01-10T00:51:47;8.00;;;3.85;;
56381;SDS011;74506;51.150;4.470;2024-01-10T00:54:13;8.77;;;3.90;;
56381;SDS011;74506;51.150;4.470;2024-01-10T00:56:38;9.95;;;4.43;;
56381;SDS011;74506;51.150;4.470;2024-01-10T00:59:04;9.13;;;4.75;;
56381;SDS011;74506;51.150;4.470;2024-01-10T01:01:30;7.07;;;3.92;;
56381;SDS011;74506;51.150;4.470;2024-01-10T01:03:56;9.85;;;4.30;;
56381;SDS011;74506;51.150;4.470;2024-01-10T01:06:21;8.00;;;4.07;;
56381;SDS011;74506;51.150;4.470;2024-01-10T01:08:47;8.70;;;4.57;;
56381;SDS011;74506;51.150;4.470;2024-01-10T01:11:13;9.20;;;3.97;;
56381;SDS011;74506;51.150;4.470;2024-01-10T01:13:39;6.53;;;3.75;;
56381;SDS011;74506;51.150;4.470;2024-01-10T01:16:05;6.70;;;3.53;;
56381;SDS011;74506;51.150;4.470;2024-01-10T01:18:31;8.63;;;3.85;;
56381;SDS011;74506;51.150;4.470;2024-01-10T01:20:57;9.95;;;4.30;;
56381;SDS011;74506;51.150;4.470;2024-01-10T01:23:23;8.52;;;3.53;;
56381;SDS011;74506;51.150;4.470;2024-01-10T01:25:49;7.13;;;3.55;;
56381;SDS011;74506;51.150;4.470;2024-01-10T01:28:16;8.15;;;4.28;;
56381;SDS011;74506;51.150;4.470;2024-01-10T01:30:41;10.07;;;3.65;;
56381;SDS011;74506;51.150;4.470;2024-01-10T01:33:08;9.10;;;4.20;;
56381;SDS011;74506;51.150;4.470;2024-01-10T01:35:34;10.00;;;4.07;;
56381;SDS011;74506;51.150;4.470;2024-01-10T01:37:59;10.43;;;4.20;;
56381;SDS011;74506;51.150;4.470;2024-01-10T01:40:25;8.73;;;3.95;;
56381;SDS011;74506;51.150;4.470;2024-01-10T01:42:51;7.13;;;3.78;;
56381;SDS011;74506;51.150;4.470;2024-01-10T01:45:16;7.78;;;3.58;;
56381;SDS011;74506;51.150;4.470;2024-01-10T01:47:42;8.38;;;4.30;;
56381;SDS011;74506;51.150;4.470;2024-01-10T01:50:08;10.32;;;3.85;;
56381;SDS011;74506;51.150;4.470;2024-01-10T01:52:34;9.02;;;4.10;;
56381;SDS011;74506;51.150;4.470;2024-01-10T01:55:00;7.63;;;3.55;;
56381;SDS011;74506;51.150;4.470;2024-01-10T01:57:26;6.68;;;3.75;;
56381;SDS011;74506;51.150;4.470;2024-01-10T01:59:52;9.27;;;4.03;;
56381;SDS011;74506;51.150;4.470;2024-01-10T02:02:17;7.70;;;3.55;;
56381;SDS011;74506;51.150;4.470;2024-01-10T02:04:44;7.25;;;3.50;;
56381;SDS011;74506;51.150;4.470;2024-01-10T02:07:10;8.70;;;4.47;;
56381;SDS011;74506;51.150;4.470;2024-01-10T02:09:36;6.82;;;3.55;;
56381;SDS011;74506;51.150;4.470;2024-01-10T02:12:02;7.25;;;3.95;;
56381;SDS011;74506;51.150;4.470;2024-01-10T02:14:28;7.88;;;4.45;;
56381;SDS011;74506;51.150;4.470;2024-01-10T02:16:54;7.85;;;3.95;;
56381;SDS011;74506;51.150;4.470;2024-01-10T02:19:21;11.48;;;3.78;;
56381;SDS011;74506;51.150;4.470;2024-01-10T02:21:47;7.55;;;3.70;;
56381;SDS011;74506;51.150;4.470;2024-01-10T02:24:12;9.05;;;4.05;;
56381;SDS011;74506;51.150;4.470;2024-01-10T02:26:39;8.52;;;4.00;;
56381;SDS011;74506;51.150;4.470;2024-01-10T02:29:04;8.52;;;4.25;;
56381;SDS011;74506;51.150;4.470;2024-01-10T02:31:30;7.53;;;3.78;;
56381;SDS011;74506;51.150;4.470;2024-01-10T02:33:55;5.82;;;3.55;;
56381;SDS011;74506;51.150;4.470;2024-01-10T02:36:21;7.45;;;3.90;;
56381;SDS011;74506;51.150;4.470;2024-01-10T02:38:47;8.07;;;4.20;;
56381;SDS011;74506;51.150;4.470;2024-01-10T02:41:13;9.00;;;3.80;;
56381;SDS011;74506;51.150;4.470;2024-01-10T02:43:38;7.28;;;4.30;;
56381;SDS011;74506;51.150;4.470;2024-01-10T02:46:04;6.90;;;3.50;;
56381;SDS011;74506;51.150;4.470;2024-01-10T02:48:30;8.45;;;4.13;;
56381;SDS011;74506;51.150;4.470;2024-01-10T02:50:55;7.38;;;4.07;;
56381;SDS011;74506;51.150;4.470;2024-01-10T02:53:21;8.20;;;4.15;;
56381;SDS011;74506;51.150;4.470;2024-01-10T02:55:47;6.50;;;3.65;;
56381;SDS011;74506;51.150;4.470;2024-01-10T02:58:13;7.43;;;3.30;;
56381;SDS011;74506;51.150;4.470;2024-01-10T03:00:38;6.90;;;3.22;;
56381;SDS011;74506;51.150;4.470;2024-01-10T03:03:04;5.65;;;3.50;;
56381;SDS011;74506;51.150;4.470;2024-01-10T03:05:30;8.73;;;3.50;;
56381;SDS011;74506;51.150;4.470;2024-01-10T03:07:55;9.02;;;3.92;;
56381;SDS011;74506;51.150;4.470;2024-01-10T03:10:21;10.43;;;3.92;;
56381;SDS011;74506;51.150;4.470;2024-01-10T03:12:47;7.40;;;3.72;;
56381;SDS011;74506;51.150;4.470;2024-01-10T03:15:12;8.90;;;3.40;;
56381;SDS011;74506;51.150;4.470;2024-01-10T03:17:38;7.28;;;3.50;;
56381;SDS011;74506;51.150;4.470;2024-01-10T03:20:04;8.10;;;3.70;;
56381;SDS011;74506;51.150;4.470;2024-01-10T03:22:30;6.60;;;3.55;;
56381;SDS011;74506;51.150;4.470;2024-01-10T03:24:57;7.22;;;3.33;;
56381;SDS011;74506;51.150;4.470;2024-01-10T03:27:23;7.10;;;4.07;;
56381;SDS011;74506;51.150;4.470;2024-01-10T03:29:49;8.80;;;3.50;;
56381;SDS011;74506;51.150;4.470;2024-01-10T03:32:14;6.40;;;4.05;;
56381;SDS011;74506;51.150;4.470;2024-01-10T03:34:41;5.93;;;3.15;;
56381;SDS011;74506;51.150;4.470;2024-01-10T03:37:06;6.43;;;3.35;;
56381;SDS011;74506;51.150;4.470;2024-01-10T03:39:32;6.18;;;3.33;;
56381;SDS011;74506;51.150;4.470;2024-01-10T03:41:58;7.57;;;3.92;;
56381;SDS011;74506;51.150;4.470;2024-01-10T03:44:23;6.63;;;3.58;;
56381;SDS011;74506;51.150;4.470;2024-01-10T03:46:49;6.95;;;4.07;;
56381;SDS011;74506;51.150;4.470;2024-01-10T03:49:15;6.43;;;3.63;;
56381;SDS011;74506;51.150;4.470;2024-01-10T03:51:40;7.32;;;3.90;;
56381;SDS011;74506;51.150;4.470;2024-01-10T03:54:07;7.75;;;3.17;;
56381;SDS011;74506;51.150;4.470;2024-01-10T03:56:32;5.95;;;3.30;;
56381;SDS011;74506;51.150;4.470;2024-01-10T03:58:58;6.20;;;2.85;;
56381;SDS011;74506;51.150;4.470;2024-01-10T04:01:24;7.10;;;3.42;;
56381;SDS011;74506;51.150;4.470;2024-01-10T04:03:50;7.43;;;3.45;;
56381;SDS011;74506;51.150;4.470;2024-01-10T04:06:16;6.88;;;3.22;;
56381;SDS011;74506;51.150;4.470;2024-01-10T04:08:41;7.28;;;3.58;;
56381;SDS011;74506;51.150;4.470;2024-01-10T04:11:07;4.97;;;2.83;;
56381;SDS011;74506;51.150;4.470;2024-01-10T04:13:34;6.43;;;3.42;;
56381;SDS011;74506;51.150;4.470;2024-01-10T04:16:00;6.15;;;3.85;;
56381;SDS011;74506;51.150;4.470;2024-01-10T04:18:26;6.68;;;3.13;;
56381;SDS011;74506;51.150;4.470;2024-01-10T04:20:51;6.32;;;3.25;;
56381;SDS011;74506;51.150;4.470;2024-01-10T04:23:17;5.68;;;3.13;;
56381;SDS011;74506;51.150;4.470;2024-01-10T04:25:43;7.10;;;3.10;;
56381;SDS011;74506;51.150;4.470;2024-01-10T04:28:08;6.65;;;2.85;;
56381;SDS011;74506;51.150;4.470;2024-01-10T04:30:34;7.35;;;3.63;;
56381;SDS011;74506;51.150;4.470;2024-01-10T04:32:59;5.60;;;3.33;;
56381;SDS011;74506;51.150;4.470;2024-01-10T04:35:25;5.57;;;3.00;;
56381;SDS011;74506;51.150;4.470;2024-01-10T04:37:51;6.72;;;3.15;;
56381;SDS011;74506;51.150;4.470;2024-01-10T04:40:16;6.93;;;3.47;;
56381;SDS011;74506;51.150;4.470;2024-01-10T04:42:44;4.65;;;2.70;;
56381;SDS011;74506;51.150;4.470;2024-01-10T04:45:09;6.07;;;3.28;;
56381;SDS011;74506;51.150;4.470;2024-01-10T04:47:35;6.82;;;3.28;;
56381;SDS011;74506;51.150;4.470;2024-01-10T04:50:01;5.45;;;2.58;;
56381;SDS011;74506;51.150;4.470;2024-01-10T04:52:26;6.10;;;3.33;;
56381;SDS011;74506;51.150;4.470;2024-01-10T04:54:52;6.05;;;3.65;;
56381;SDS011;74506;51.150;4.470;2024-01-10T04:57:18;6.25;;;3.25;;
56381;SDS011;74506;51.150;4.470;2024-01-10T04:59:43;6.22;;;3.20;;
56381;SDS011;74506;51.150;4.470;2024-01-10T05:02:09;8.07;;;3.58;;
56381;SDS011;74506;51.150;4.470;2024-01-10T05:04:35;5.57;;;2.92;;
56381;SDS011;74506;51.150;4.470;2024-01-10T05:07:01;7.78;;;3.80;;
56381;SDS011;74506;51.150;4.470;2024-01-10T05:09:26;6.13;;;3.05;;
56381;SDS011;74506;51.150;4.470;2024-01-10T05:11:52;4.32;;;2.88;;
56381;SDS011;74506;51.150;4.470;2024-01-10T05:14:18;7.55;;;3.40;;
56381;SDS011;74506;51.150;4.470;2024-01-10T05:16:47;6.55;;;3.35;;
56381;SDS011;74506;51.150;4.470;2024-01-10T05:19:13;7.28;;;3.20;;
56381;SDS011;74506;51.150;4.470;2024-01-10T05:21:39;6.10;;;3.03;;
56381;SDS011;74506;51.150;4.470;2024-01-10T05:24:05;5.82;;;3.05;;
56381;SDS011;74506;51.150;4.470;2024-01-10T05:26:31;6.57;;;3.05;;
56381;SDS011;74506;51.150;4.470;2024-01-10T05:28:56;8.07;;;3.30;;
56381;SDS011;74506;51.150;4.470;2024-01-10T05:31:22;7.30;;;3.75;;
56381;SDS011;74506;51.150;4.470;2024-01-10T05:33:48;6.20;;;3.03;;
56381;SDS011;74506;51.150;4.470;2024-01-10T05:36:14;6.60;;;3.38;;
56381;SDS011;74506;51.150;4.470;2024-01-10T05:38:39;7.85;;;3.25;;
56381;SDS011;74506;51.150;4.470;2024-01-10T05:41:08;4.88;;;2.95;;
56381;SDS011;74506;51.150;4.470;2024-01-10T05:43:33;11.60;;;3.63;;
56381;SDS011;74506;51.150;4.470;2024-01-10T05:45:59;5.95;;;3.50;;
56381;SDS011;74506;51.150;4.470;2024-01-10T05:48:25;7.90;;;3.38;;
56381;SDS011;74506;51.150;4.470;2024-01-10T05:50:51;6.82;;;2.65;;
56381;SDS011;74506;51.150;4.470;2024-01-10T05:53:16;6.82;;;3.45;;
56381;SDS011;74506;51.150;4.470;2024-01-10T05:55:42;7.32;;;3.28;;
56381;SDS011;74506;51.150;4.470;2024-01-10T05:58:09;7.20;;;3.53;;
56381;SDS011;74506;51.150;4.470;2024-01-10T06:00:34;6.25;;;3.22;;
56381;SDS011;74506;51.150;4.470;2024-01-10T06:03:00;7.25;;;3.53;;
56381;SDS011;74506;51.150;4.470;2024-01-10T06:05:26;5.88;;;3.10;;
56381;SDS011;74506;51.150;4.470;2024-01-10T06:07:51;12.02;;;3.45;;
56381;SDS011;74506;51.150;4.470;2024-01-10T06:10:17;8.00;;;3.53;;
56381;SDS011;74506;51.150;4.470;2024-01-10T06:12:43;9.15;;;4.13;;
56381;SDS011;74506;51.150;4.470;2024-01-10T06:15:09;6.88;;;3.50;;
56381;SDS011;74506;51.150;4.470;2024-01-10T06:17:36;5.90;;;2.97;;
56381;SDS011;74506;51.150;4.470;2024-01-10T06:20:03;6.47;;;3.28;;
56381;SDS011;74506;51.150;4.470;2024-01-10T06:22:29;6.68;;;3.17;;
56381;SDS011;74506;51.150;4.470;2024-01-10T06:24:55;6.80;;;3.13;;
56381;SDS011;74506;51.150;4.470;2024-01-10T06:27:21;6.03;;;3.33;;
56381;SDS011;74506;51.150;4.470;2024-01-10T06:29:46;7.03;;;3.53;;
56381;SDS011;74506;51.150;4.470;2024-01-10T06:32:12;5.60;;;3.03;;
56381;SDS011;74506;51.150;4.470;2024-01-10T06:34:40;7.32;;;3.45;;
56381;SDS011;74506;51.150;4.470;2024-01-10T06:37:05;8.88;;;3.95;;
56381;SDS011;74506;51.150;4.470;2024-01-10T06:39:33;9.52;;;4.53;;
56381;SDS011;74506;51.150;4.470;2024-01-10T06:41:58;8.63;;;3.67;;
56381;SDS011;74506;51.150;4.470;2024-01-10T06:44:24;6.53;;;3.55;;
56381;SDS011;74506;51.150;4.470;2024-01-10T06:46:50;6.53;;;3.42;;
56381;SDS011;74506;51.150;4.470;2024-01-10T06:49:16;14.93;;;4.00;;
56381;SDS011;74506;51.150;4.470;2024-01-10T06:51:42;8.82;;;3.55;;
56381;SDS011;74506;51.150;4.470;2024-01-10T06:54:07;8.38;;;4.05;;
56381;SDS011;74506;51.150;4.470;2024-01-10T06:56:34;7.43;;;4.05;;
56381;SDS011;74506;51.150;4.470;2024-01-10T06:59:00;8.07;;;3.85;;
56381;SDS011;74506;51.150;4.470;2024-01-10T07:01:26;7.22;;;3.72;;
56381;SDS011;74506;51.150;4.470;2024-01-10T07:03:52;10.48;;;5.20;;
56381;SDS011;74506;51.150;4.470;2024-01-10T07:06:18;7.20;;;3.75;;
56381;SDS011;74506;51.150;4.470;2024-01-10T07:08:43;6.60;;;3.40;;
56381;SDS011;74506;51.150;4.470;2024-01-10T07:11:12;8.05;;;4.05;;
56381;SDS011;74506;51.150;4.470;2024-01-10T07:13:38;10.20;;;3.80;;
56381;SDS011;74506;51.150;4.470;2024-01-10T07:16:04;9.25;;;4.70;;
56381;SDS011;74506;51.150;4.470;2024-01-10T07:18:29;9.68;;;4.32;;
56381;SDS011;74506;51.150;4.470;2024-01-10T07:20:55;8.30;;;3.50;;
56381;SDS011;74506;51.150;4.470;2024-01-10T07:23:21;9.05;;;4.32;;
56381;SDS011;74506;51.150;4.470;2024-01-10T07:25:48;9.05;;;3.70;;
56381;SDS011;74506;51.150;4.470;2024-01-10T07:28:13;9.50;;;4.13;;
56381;SDS011;74506;51.150;4.470;2024-01-10T07:30:39;10.43;;;4.47;;
56381;SDS011;74506;51.150;4.470;2024-01-10T07:33:04;18.10;;;7.93;;
56381;SDS011;74506;51.150;4.470;2024-01-10T07:35:30;7.60;;;4.55;;
56381;SDS011;74506;51.150;4.470;2024-01-10T07:37:55;8.88;;;4.65;;
56381;SDS011;74506;51.150;4.470;2024-01-10T07:40:21;10.02;;;4.28;;
56381;SDS011;74506;51.150;4.470;2024-01-10T07:42:47;9.20;;;4.32;;
56381;SDS011;74506;51.150;4.470;2024-01-10T07:45:13;6.82;;;3.92;;
56381;SDS011;74506;51.150;4.470;2024-01-10T07:47:38;10.73;;;4.13;;
56381;SDS011;74506;51.150;4.470;2024-01-10T07:50:10;7.35;;;3.60;;
56381;SDS011;74506;51.150;4.470;2024-01-10T07:52:37;7.78;;;3.92;;
56381;SDS011;74506;51.150;4.470;2024-01-10T07:55:03;8.18;;;4.30;;
56381;SDS011;74506;51.150;4.470;2024-01-10T07:57:30;7.93;;;3.67;;
56381;SDS011;74506;51.150;4.470;2024-01-10T07:59:56;7.78;;;3.95;;
56381;SDS011;74506;51.150;4.470;2024-01-10T08:02:21;9.23;;;4.50;;
56381;SDS011;74506;51.150;4.470;2024-01-10T08:04:47;7.43;;;3.75;;
56381;SDS011;74506;51.150;4.470;2024-01-10T08:07:12;6.93;;;3.70;;
56381;SDS011;74506;51.150;4.470;2024-01-10T08:09:38;7.18;;;3.35;;
56381;SDS011;74506;51.150;4.470;2024-01-10T08:12:04;8.75;;;4.35;;
56381;SDS011;74506;51.150;4.470;2024-01-10T08:14:29;7.45;;;3.80;;
56381;SDS011;74506;51.150;4.470;2024-01-10T08:16:54;9.52;;;4.45;;
56381;SDS011;74506;51.150;4.470;2024-01-10T08:19:23;8.23;;;4.38;;
56381;SDS011;74506;51.150;4.470;2024-01-10T08:21:49;7.82;;;4.25;;
56381;SDS011;74506;51.150;4.470;2024-01-10T08:24:15;7.55;;;3.88;;
56381;SDS011;74506;51.150;4.470;2024-01-10T08:26:40;7.72;;;3.80;;
56381;SDS011;74506;51.150;4.470;2024-01-10T08:29:06;9.55;;;4.70;;
56381;SDS011;74506;51.150;4.470;2024-01-10T08:31:31;9.65;;;4.45;;
56381;SDS011;74506;51.150;4.470;2024-01-10T08:33:57;10.05;;;5.20;;
56381;SDS011;74506;51.150;4.470;2024-01-10T08:36:22;9.57;;;4.43;;
56381;SDS011;74506;51.150;4.470;2024-01-10T08:38:50;8.43;;;5.57;;
56381;SDS011;74506;51.150;4.470;2024-01-10T08:41:15;11.98;;;4.88;;
56381;SDS011;74506;51.150;4.470;2024-01-10T08:43:41;8.85;;;4.55;;
56381;SDS011;74506;51.150;4.470;2024-01-10T08:46:08;10.27;;;4.47;;
56381;SDS011;74506;51.150;4.470;2024-01-10T08:48:33;10.93;;;4.75;;
56381;SDS011;74506;51.150;4.470;2024-01-10T08:50:58;9.25;;;4.50;;
56381;SDS011;74506;51.150;4.470;2024-01-10T08:53:24;10.65;;;4.60;;
56381;SDS011;74506;51.150;4.470;2024-01-10T08:55:49;8.68;;;4.22;;
56381;SDS011;74506;51.150;4.470;2024-01-10T08:58:15;8.63;;;4.55;;
56381;SDS011;74506;51.150;4.470;2024-01-10T09:00:40;8.35;;;4.50;;
56381;SDS011;74506;51.150;4.470;2024-01-10T09:03:06;10.05;;;4.78;;
56381;SDS011;74506;51.150;4.470;2024-01-10T09:05:32;9.50;;;4.72;;
56381;SDS011;74506;51.150;4.470;2024-01-10T09:07:57;11.05;;;5.20;;
56381;SDS011;74506;51.150;4.470;2024-01-10T09:10:23;10.32;;;4.72;;
56381;SDS011;74506;51.150;4.470;2024-01-10T09:12:49;9.75;;;5.57;;
56381;SDS011;74506;51.150;4.470;2024-01-10T09:15:14;10.50;;;5.03;;
56381;SDS011;74506;51.150;4.470;2024-01-10T09:17:43;8.32;;;4.13;;
56381;SDS011;74506;51.150;4.470;2024-01-10T09:20:09;10.02;;;4.63;;
56381;SDS011;74506;51.150;4.470;2024-01-10T09:22:35;11.20;;;5.00;;
56381;SDS011;74506;51.150;4.470;2024-01-10T09:25:00;14.23;;;5.72;;
56381;SDS011;74506;51.150;4.470;2024-01-10T09:27:32;11.45;;;5.22;;
56381;SDS011;74506;51.150;4.470;2024-01-10T09:29:58;10.95;;;5.00;;
56381;SDS011;74506;51.150;4.470;2024-01-10T09:32:24;14.02;;;5.22;;
56381;SDS011;74506;51.150;4.470;2024-01-10T09:34:50;9.90;;;5.82;;
56381;SDS011;74506;51.150;4.470;2024-01-10T09:37:16;12.05;;;5.18;;
56381;SDS011;74506;51.150;4.470;2024-01-10T09:39:41;12.18;;;5.35;;
56381;SDS011;74506;51.150;4.470;2024-01-10T09:42:07;9.25;;;5.20;;
56381;SDS011;74506;51.150;4.470;2024-01-10T09:44:33;9.32;;;4.18;;
56381;SDS011;74506;51.150;4.470;2024-01-10T09:46:58;10.07;;;5.30;;
56381;SDS011;74506;51.150;4.470;2024-01-10T09:49:26;12.20;;;4.93;;
56381;SDS011;74506;51.150;4.470;2024-01-10T09:51:53;10.38;;;5.07;;
56381;SDS011;74506;51.150;4.470;2024-01-10T09:54:21;9.88;;;4.57;;
56381;SDS011;74506;51.150;4.470;2024-01-10T09:56:47;11.27;;;5.10;;
56381;SDS011;74506;51.150;4.470;2024-01-10T09:59:13;11.45;;;5.68;;
56381;SDS011;74506;51.150;4.470;2024-01-10T10:01:38;10.60;;;5.40;;
56381;SDS011;74506;51.150;4.470;2024-01-10T10:04:07;9.25;;;4.93;;
56381;SDS011;74506;51.150;4.470;2024-01-10T10:06:33;9.90;;;4.95;;
56381;SDS011;74506;51.150;4.470;2024-01-10T10:08:59;16.77;;;5.63;;
56381;SDS011;74506;51.150;4.470;2024-01-10T10:11:25;9.13;;;4.90;;
56381;SDS011;74506;51.150;4.470;2024-01-10T10:13:51;9.57;;;5.40;;
56381;SDS011;74506;51.150;4.470;2024-01-10T10:16:22;9.77;;;5.22;;
56381;SDS011;74506;51.150;4.470;2024-01-10T10:18:48;11.68;;;5.20;;
56381;SDS011;74506;51.150;4.470;2024-01-10T10:21:15;9.40;;;5.40;;
56381;SDS011;74506;51.150;4.470;2024-01-10T10:23:41;7.80;;;5.32;;
56381;SDS011;74506;51.150;4.470;2024-01-10T10:26:14;9.48;;;6.05;;
56381;SDS011;74506;51.150;4.470;2024-01-10T10:28:45;8.93;;;5.38;;
56381;SDS011;74506;51.150;4.470;2024-01-10T10:31:10;9.23;;;5.97;;
56381;SDS011;74506;51.150;4.470;2024-01-10T10:33:36;9.80;;;6.28;;
56381;SDS011;74506;51.150;4.470;2024-01-10T10:36:02;11.52;;;6.25;;
56381;SDS011;74506;51.150;4.470;2024-01-10T10:38:28;11.07;;;7.18;;
56381;SDS011;74506;51.150;4.470;2024-01-10T10:40:54;12.75;;;7.53;;
56381;SDS011;74506;51.150;4.470;2024-01-10T10:43:21;10.13;;;6.35;;
56381;SDS011;74506;51.150;4.470;2024-01-10T10:45:49;12.00;;;7.13;;
56381;SDS011;74506;51.150;4.470;2024-01-10T10:48:18;14.48;;;8.15;;
56381;SDS011;74506;51.150;4.470;2024-01-10T10:53:27;13.05;;;8.25;;
56381;SDS011;74506;51.150;4.470;2024-01-10T10:55:53;11.70;;;7.22;;
56381;SDS011;74506;51.150;4.470;2024-01-10T10:58:19;12.10;;;7.85;;
56381;SDS011;74506;51.150;4.470;2024-01-10T11:00:44;12.80;;;7.30;;
56381;SDS011;74506;51.150;4.470;2024-01-10T11:03:12;11.20;;;7.25;;
56381;SDS011;74506;51.150;4.470;2024-01-10T11:05:40;11.05;;;7.55;;
56381;SDS011;74506;51.150;4.470;2024-01-10T11:08:05;11.45;;;7.68;;
56381;SDS011;74506;51.150;4.470;2024-01-10T11:10:33;11.82;;;7.57;;
56381;SDS011;74506;51.150;4.470;2024-01-10T11:18:09;11.18;;;7.03;;
56381;SDS011;74506;51.150;4.470;2024-01-10T11:25:46;13.65;;;9.48;;
56381;SDS011;74506;51.150;4.470;2024-01-10T11:28:12;11.75;;;7.95;;
56381;SDS011;74506;51.150;4.470;2024-01-10T11:30:47;11.43;;;7.18;;
56381;SDS011;74506;51.150;4.470;2024-01-10T11:33:23;11.23;;;7.68;;
56381;SDS011;74506;51.150;4.470;2024-01-10T11:41:05;12.95;;;7.78;;
56381;SDS011;74506;51.150;4.470;2024-01-10T11:43:30;12.60;;;8.10;;
56381;SDS011;74506;51.150;4.470;2024-01-10T11:45:55;12.95;;;7.95;;
56381;SDS011;74506;51.150;4.470;2024-01-10T11:48:28;14.75;;;8.55;;
56381;SDS011;74506;51.150;4.470;2024-01-10T11:50:54;11.75;;;8.40;;
56381;SDS011;74506;51.150;4.470;2024-01-10T11:53:41;11.48;;;7.80;;
56381;SDS011;74506;51.150;4.470;2024-01-10T11:56:15;13.50;;;8.15;;
56381;SDS011;74506;51.150;4.470;2024-01-10T11:58:55;13.38;;;7.45;;
56381;SDS011;74506;51.150;4.470;2024-01-10T12:01:22;14.38;;;8.57;;
56381;SDS011;74506;51.150;4.470;2024-01-10T12:03:47;12.50;;;8.02;;
56381;SDS011;74506;51.150;4.470;2024-01-10T12:06:15;11.15;;;7.28;;
56381;SDS011;74506;51.150;4.470;2024-01-10T12:08:42;12.05;;;7.63;;
56381;SDS011;74506;51.150;4.470;2024-01-10T12:11:07;12.40;;;8.20;;
56381;SDS011;74506;51.150;4.470;2024-01-10T12:13:34;15.15;;;8.18;;
56381;SDS011;74506;51.150;4.470;2024-01-10T12:16:00;12.85;;;7.85;;
56381;SDS011;74506;51.150;4.470;2024-01-10T12:18:26;12.57;;;8.40;;
56381;SDS011;74506;51.150;4.470;2024-01-10T12:20:51;14.15;;;7.20;;
56381;SDS011;74506;51.150;4.470;2024-01-10T12:23:17;14.23;;;8.13;;
56381;SDS011;74506;51.150;4.470;2024-01-10T12:25:42;11.05;;;7.90;;
56381;SDS011;74506;51.150;4.470;2024-01-10T12:28:08;12.15;;;7.95;;
56381;SDS011;74506;51.150;4.470;2024-01-10T12:30:33;12.40;;;7.93;;
56381;SDS011;74506;51.150;4.470;2024-01-10T12:33:02;11.60;;;7.57;;
56381;SDS011;74506;51.150;4.470;2024-01-10T12:35:27;10.98;;;7.50;;
56381;SDS011;74506;51.150;4.470;2024-01-10T12:37:56;14.90;;;7.78;;
56381;SDS011;74506;51.150;4.470;2024-01-10T12:40:21;11.82;;;7.70;;
56381;SDS011;74506;51.150;4.470;2024-01-10T12:42:47;11.68;;;7.10;;
56381;SDS011;74506;51.150;4.470;2024-01-10T12:45:22;12.68;;;7.88;;
56381;SDS011;74506;51.150;4.470;2024-01-10T12:47:48;12.63;;;7.43;;
56381;SDS011;74506;51.150;4.470;2024-01-10T12:50:13;12.05;;;7.05;;
56381;SDS011;74506;51.150;4.470;2024-01-10T12:52:40;12.95;;;6.90;;
56381;SDS011;74506;51.150;4.470;2024-01-10T12:55:08;12.93;;;7.90;;
56381;SDS011;74506;51.150;4.470;2024-01-10T12:57:33;14.32;;;6.68;;
56381;SDS011;74506;51.150;4.470;2024-01-10T12:59:58;14.43;;;7.20;;
56381;SDS011;74506;51.150;4.470;2024-01-10T13:02:24;13.20;;;7.15;;
56381;SDS011;74506;51.150;4.470;2024-01-10T13:04:49;11.05;;;6.88;;
56381;SDS011;74506;51.150;4.470;2024-01-10T13:07:15;12.98;;;7.25;;
56381;SDS011;74506;51.150;4.470;2024-01-10T13:09:41;17.00;;;7.28;;
56381;SDS011;74506;51.150;4.470;2024-01-10T13:12:06;15.85;;;6.90;;
56381;SDS011;74506;51.150;4.470;2024-01-10T13:14:32;14.68;;;7.28;;
56381;SDS011;74506;51.150;4.470;2024-01-10T13:16:58;11.32;;;6.55;;
56381;SDS011;74506;51.150;4.470;2024-01-10T13:19:24;13.63;;;6.80;;
56381;SDS011;74506;51.150;4.470;2024-01-10T13:21:49;14.75;;;7.10;;
56381;SDS011;74506;51.150;4.470;2024-01-10T13:24:14;12.10;;;6.07;;
56381;SDS011;74506;51.150;4.470;2024-01-10T13:26:40;14.55;;;7.35;;
56381;SDS011;74506;51.150;4.470;2024-01-10T13:29:05;15.85;;;7.50;;
56381;SDS011;74506;51.150;4.470;2024-01-10T13:31:31;15.63;;;8.20;;
56381;SDS011;74506;51.150;4.470;2024-01-10T13:33:56;12.93;;;8.10;;
56381;SDS011;74506;51.150;4.470;2024-01-10T13:36:21;15.77;;;7.45;;
56381;SDS011;74506;51.150;4.470;2024-01-10T13:38:47;14.18;;;7.85;;
56381;SDS011;74506;51.150;4.470;2024-01-10T13:41:12;14.30;;;7.10;;
56381;SDS011;74506;51.150;4.470;2024-01-10T13:43:38;16.30;;;7.38;;
56381;SDS011;74506;51.150;4.470;2024-01-10T13:46:05;17.27;;;7.38;;
56381;SDS011;74506;51.150;4.470;2024-01-10T13:48:30;10.50;;;6.43;;
56381;SDS011;74506;51.150;4.470;2024-01-10T13:50:56;14.52;;;7.35;;
56381;SDS011;74506;51.150;4.470;2024-01-10T13:53:21;35.05;;;9.05;;
56381;SDS011;74506;51.150;4.470;2024-01-10T13:55:47;14.07;;;6.80;;
56381;SDS011;74506;51.150;4.470;2024-01-10T13:58:12;18.65;;;8.35;;
56381;SDS011;74506;51.150;4.470;2024-01-10T14:00:38;15.68;;;8.07;;
56381;SDS011;74506;51.150;4.470;2024-01-10T14:03:03;14.02;;;7.25;;
56381;SDS011;74506;51.150;4.470;2024-01-10T14:05:29;13.50;;;6.90;;
56381;SDS011;74506;51.150;4.470;2024-01-10T14:07:55;13.30;;;7.15;;
56381;SDS011;74506;51.150;4.470;2024-01-10T14:10:21;13.63;;;7.30;;
56381;SDS011;74506;51.150;4.470;2024-01-10T14:12:47;18.73;;;7.60;;
56381;SDS011;74506;51.150;4.470;2024-01-10T14:15:12;16.52;;;7.28;;
56381;SDS011;74506;51.150;4.470;2024-01-10T14:17:39;15.88;;;7.35;;
56381;SDS011;74506;51.150;4.470;2024-01-10T14:20:05;21.13;;;8.57;;
56381;SDS011;74506;51.150;4.470;2024-01-10T14:22:34;20.88;;;7.93;;
56381;SDS011;74506;51.150;4.470;2024-01-10T14:25:00;17.70;;;8.52;;
56381;SDS011;74506;51.150;4.470;2024-01-10T14:27:25;15.30;;;7.70;;
56381;SDS011;74506;51.150;4.470;2024-01-10T14:29:51;12.88;;;7.07;;
56381;SDS011;74506;51.150;4.470;2024-01-10T14:32:16;14.95;;;7.90;;
56381;SDS011;74506;51.150;4.470;2024-01-10T14:34:42;18.52;;;8.13;;
56381;SDS011;74506;51.150;4.470;2024-01-10T14:37:07;14.52;;;7.82;;
56381;SDS011;74506;51.150;4.470;2024-01-10T14:39:34;14.80;;;7.93;;
56381;SDS011;74506;51.150;4.470;2024-01-10T14:42:02;15.52;;;8.18;;
56381;SDS011;74506;51.150;4.470;2024-01-10T14:44:28;15.73;;;7.25;;
56381;SDS011;74506;51.150;4.470;2024-01-10T14:46:53;15.65;;;7.78;;
56381;SDS011;74506;51.150;4.470;2024-01-10T14:49:19;13.63;;;6.95;;
56381;SDS011;74506;51.150;4.470;2024-01-10T14:51:44;15.15;;;8.32;;
56381;SDS011;74506;51.150;4.470;2024-01-10T14:54:09;16.17;;;7.97;;